Time;durP1;ratioP1;P1;durP2;ratioP2;P2;SDS_P1;SDS_P2;PMS_P1;PMS_P2;Temp;Humidity;BMP_temperature;BMP_pressure;BME280_temperature;BME280_humidity;BME280_pressure;Samples;Min_cycle;Max_cycle;Signal;HPM_P1;HPM_P2
2022/09/18 00:04:50;;;;;;;2.13;0.73;;;;;;;19.63;54.54;96889.66;10540218;28;20039;-28
2022/09/18 00:09:50;;;;;;;0.80;0.55;;;;;;;19.60;53.82;96887.97;10537056;28;20036;-28
2022/09/18 00:14:51;;;;;;;0.73;0.47;;;;;;;19.57;54.06;96894.72;10533156;28;20044;-28
2022/09/18 00:19:52;;;;;;;1.70;0.67;;;;;;;19.53;54.28;96882.91;10543343;28;20032;-28
2022/09/18 00:24:52;;;;;;;2.00;1.17;;;;;;;19.53;54.41;96883.75;10535807;28;20039;-29
2022/09/18 00:29:53;;;;;;;0.63;0.50;;;;;;;19.50;54.25;96891.38;10532411;28;20039;-27
2022/09/18 00:34:53;;;;;;;0.67;0.40;;;;;;;19.50;54.42;96877.84;10529849;28;20036;-27
2022/09/18 00:39:54;;;;;;;0.83;0.40;;;;;;;19.47;54.74;96877.81;10531618;28;20036;-28
2022/09/18 00:44:55;;;;;;;1.33;0.60;;;;;;;19.48;54.88;96884.59;10539901;28;20839;-28
2022/09/18 00:50:01;;;;;;;3.33;0.87;;;;;;;19.54;55.56;96888.00;10534277;28;20039;-27
2022/09/18 00:55:06;;;;;;;1.88;0.82;;;;;;;19.62;55.42;96888.81;10538663;28;20368;-28
2022/09/18 01:00:13;;;;;;;1.38;0.65;;;;;;;19.62;54.93;96893.91;10529238;28;20035;-28
2022/09/18 01:05:17;;;;;;;1.13;0.50;;;;;;;19.60;54.57;96895.56;10533291;28;20036;-28
2022/09/18 01:10:47;;;;;;;0.70;0.38;;;;;;;19.58;54.51;96893.91;10533249;28;20688;-27
2022/09/18 01:15:58;;;;;;;1.55;0.30;;;;;;;19.55;54.66;96887.13;10519722;28;20028;-28
2022/09/18 01:21:15;;;;;;;1.27;0.55;;;;;;;19.54;54.54;96880.38;10514286;28;20039;-28
2022/09/18 01:26:37;;;;;;;0.83;0.50;;;;;;;19.53;54.78;96877.81;10545268;28;20035;-28
2022/09/18 01:31:50;;;;;;;1.17;0.63;;;;;;;19.54;54.96;96884.59;10525615;28;20036;-28
2022/09/18 01:36:57;;;;;;;1.45;0.47;;;;;;;19.45;55.00;96877.84;10528286;28;20032;-28
2022/09/18 01:42:01;;;;;;;2.53;0.55;;;;;;;19.46;55.08;96871.06;10528413;28;20043;-29
2022/09/18 01:47:07;;;;;;;2.85;0.75;;;;;;;19.58;55.74;96881.22;10538439;28;20043;-28
2022/09/18 01:52:18;;;;;;;3.38;0.80;;;;;;;19.61;55.75;96881.19;10530293;28;20032;-28
2022/09/18 01:57:24;;;;;;;0.57;0.40;;;;;;;19.58;54.92;96876.97;10530616;28;20039;-29
2022/09/18 02:02:57;;;;;;;1.90;0.70;;;;;;;19.56;54.71;96863.44;10531196;28;20032;-29
2022/09/18 02:08:10;;;;;;;1.67;0.50;;;;;;;19.57;54.72;96861.72;10528864;28;20402;-28
2022/09/18 02:13:15;;;;;;;1.10;0.65;;;;;;;19.57;54.99;96869.34;10533422;28;20035;-28
2022/09/18 02:18:23;;;;;;;1.25;0.55;;;;;;;19.54;55.05;96874.44;10538198;28;20023;-28
2022/09/18 02:23:24;;;;;;;1.60;0.55;;;;;;;19.55;54.97;96876.97;10537924;28;20035;-28
2022/09/18 02:28:27;;;;;;;0.95;0.52;;;;;;;19.52;55.26;96881.22;10529880;28;20407;-28
2022/09/18 02:33:28;;;;;;;1.33;0.50;;;;;;;19.47;55.32;96877.81;10532474;28;20028;-28
2022/09/18 02:38:59;;;;;;;0.73;0.23;;;;;;;19.46;55.44;96876.13;10535062;28;20100;-27
2022/09/18 02:44:15;;;;;;;2.40;0.60;;;;;;;19.57;56.06;96869.34;10528104;28;20620;-28
2022/09/18 02:49:18;;;;;;;0.85;0.40;;;;;;;19.61;55.71;96878.66;10529376;28;20028;-27
2022/09/18 02:54:35;;;;;;;1.27;0.60;;;;;;;19.57;55.15;96875.28;10528740;28;20047;-28
2022/09/18 02:59:47;;;;;;;2.20;0.70;;;;;;;19.51;55.32;96869.38;10530168;28;20047;-28
2022/09/18 03:04:50;;;;;;;1.17;0.40;;;;;;;19.57;55.10;96871.88;10530579;28;20104;-28
2022/09/18 03:09:59;;;;;;;0.43;0.40;;;;;;;19.56;55.37;96867.66;10537384;28;20458;-28
2022/09/18 03:15:00;;;;;;;1.13;0.30;;;;;;;19.54;55.25;96864.28;10533769;28;20042;-28
2022/09/18 03:20:00;;;;;;;0.60;0.40;;;;;;;19.54;55.37;96856.66;10526932;28;20035;-28
2022/09/18 03:25:03;;;;;;;0.77;0.40;;;;;;;19.46;55.64;96851.59;10528677;28;20487;-29
2022/09/18 03:30:03;;;;;;;0.35;0.30;;;;;;;19.49;55.46;96845.69;10510258;28;20032;-28
2022/09/18 03:35:06;;;;;;;1.80;0.63;;;;;;;19.46;55.68;96850.75;10526663;28;20224;-29
2022/09/18 03:40:08;;;;;;;1.05;0.60;;;;;;;19.53;55.95;96860.91;10548879;28;20031;-28
2022/09/18 03:45:09;;;;;;;1.48;0.50;;;;;;;19.60;55.74;96852.41;10530556;28;20047;-29
2022/09/18 03:50:10;;;;;;;1.10;0.47;;;;;;;19.57;55.47;96846.47;10530180;28;20099;-26
2022/09/18 03:55:11;;;;;;;0.60;0.30;;;;;;;19.54;55.45;96843.97;10528574;28;20093;-28
2022/09/18 04:00:30;;;;;;;1.27;0.50;;;;;;;19.51;55.58;96849.06;10535249;28;20036;-27
2022/09/18 04:05:38;;;;;;;2.25;0.50;;;;;;;19.55;55.44;96832.94;10522004;28;20047;-27
2022/09/18 04:11:08;;;;;;;2.40;0.65;;;;;;;19.55;55.27;96835.50;10536813;28;20036;-27
2022/09/18 04:16:08;;;;;;;0.20;0.20;;;;;;;19.56;55.54;96842.25;10529010;28;20019;-25
2022/09/18 04:21:09;;;;;;;0.30;0.30;;;;;;;19.54;55.62;96841.41;10525415;28;20036;-25
2022/09/18 04:26:09;;;;;;;0.53;0.40;;;;;;;19.44;55.78;96848.19;10542825;28;20033;-26
2022/09/18 04:31:16;;;;;;;0.85;0.20;;;;;;;19.41;55.81;96839.78;10540211;28;20127;-27
2022/09/18 04:36:16;;;;;;;3.63;0.88;;;;;;;19.54;56.09;96849.03;10529555;28;20433;-25
2022/09/18 04:41:17;;;;;;;1.75;0.40;;;;;;;19.58;55.87;96851.56;10522971;28;20895;-26
2022/09/18 04:46:18;;;;;;;0.65;0.43;;;;;;;19.59;55.51;96860.03;10523446;28;20032;-26
2022/09/18 04:51:19;;;;;;;0.30;0.30;;;;;;;19.54;55.61;96867.69;10524004;28;20028;-29
2022/09/18 04:56:22;;;;;;;0.85;0.40;;;;;;;19.52;55.57;96865.97;10532439;28;20038;-26
2022/09/18 05:01:25;;;;;;;0.70;0.38;;;;;;;19.49;55.74;96866.00;10516156;28;20446;-26
2022/09/18 05:06:25;;;;;;;0.75;0.43;;;;;;;19.55;55.50;96878.66;10521580;28;20028;-27
2022/09/18 05:11:26;;;;;;;1.88;0.73;;;;;;;19.54;55.55;96879.50;10525048;28;20038;-27
2022/09/18 05:16:26;;;;;;;0.85;0.40;;;;;;;19.56;55.43;96877.81;10524375;28;20077;-27
2022/09/18 05:21:50;;;;;;;1.08;0.50;;;;;;;19.56;55.66;96877.81;10518957;28;20081;-26
2022/09/18 05:26:51;;;;;;;0.40;0.30;;;;;;;19.48;55.67;96887.13;10533340;28;20134;-26
2022/09/18 05:31:54;;;;;;;1.95;0.60;;;;;;;19.53;55.77;96885.44;10539173;28;20118;-26
2022/09/18 05:36:54;;;;;;;1.45;0.47;;;;;;;19.61;55.69;96898.97;10528617;28;20373;-26
2022/09/18 05:41:55;;;;;;;2.85;0.38;;;;;;;19.33;56.33;96900.69;10531167;28;20531;-26
2022/09/18 05:46:55;;;;;;;1.08;0.40;;;;;;;19.23;55.82;96914.25;10523431;28;20043;-26
2022/09/18 05:51:56;;;;;;;0.65;0.40;;;;;;;19.15;55.43;96915.91;10524331;28;20036;-25
2022/09/18 05:56:56;;;;;;;0.98;0.50;;;;;;;19.09;55.23;96920.13;10526946;28;20017;-26
2022/09/18 06:01:57;;;;;;;1.13;0.60;;;;;;;19.06;54.72;96909.94;10533330;28;20119;-25
2022/09/18 06:07:20;;;;;;;3.35;0.60;;;;;;;19.03;54.30;96909.97;10537121;28;20347;-26
2022/09/18 06:12:21;;;;;;;3.83;0.88;;;;;;;19.02;53.83;96908.28;10545074;28;20032;-26
2022/09/18 06:17:22;;;;;;;10.20;0.95;;;;;;;19.01;53.60;96904.03;10540125;28;20073;-26
2022/09/18 06:22:26;;;;;;;2.20;0.50;;;;;;;19.02;53.60;96913.34;10525957;28;20039;-25
2022/09/18 06:27:27;;;;;;;1.70;0.47;;;;;;;18.98;53.65;96911.63;10533761;28;20514;-26
2022/09/18 06:32:27;;;;;;;2.90;0.97;;;;;;;19.03;53.20;96913.34;10525883;28;20132;-26
2022/09/18 06:37:28;;;;;;;1.58;0.65;;;;;;;19.05;52.80;96923.50;10520217;28;20294;-26
2022/09/18 06:42:38;;;;;;;1.25;0.40;;;;;;;19.00;53.12;96925.19;10522011;28;20393;-26
2022/09/18 06:47:46;;;;;;;6.22;0.60;;;;;;;18.97;52.89;96925.16;10531163;28;20036;-26
2022/09/18 06:52:47;;;;;;;0.57;0.43;;;;;;;18.97;52.70;96935.31;10541714;28;20043;-26
2022/09/18 06:57:55;;;;;;;1.80;0.50;;;;;;;18.93;52.79;96938.72;10542725;28;20039;-26
2022/09/18 07:02:57;;;;;;;1.42;0.70;;;;;;;18.97;52.69;96931.09;10528372;28;20036;-26
2022/09/18 07:08:36;;;;;;;1.55;0.60;;;;;;;18.91;52.42;96920.13;10525645;28;20068;-26
2022/09/18 07:13:47;;;;;;;1.92;0.75;;;;;;;18.90;52.85;96926.00;10521740;28;20487;-26
2022/09/18 07:18:47;;;;;;;1.73;0.60;;;;;;;18.97;52.73;96920.09;10539411;28;20143;-26
2022/09/18 07:23:51;;;;;;;1.27;0.50;;;;;;;18.89;53.08;96925.16;10536321;28;20040;-26
2022/09/18 07:28:52;;;;;;;1.40;0.70;;;;;;;18.97;52.89;96922.63;10531756;28;20024;-26
2022/09/18 07:34:00;;;;;;;1.08;0.52;;;;;;;19.00;51.88;96926.03;10531327;28;20047;-25
2022/09/18 07:39:03;;;;;;;1.48;0.50;;;;;;;18.99;52.48;96929.41;10532500;28;20029;-25
2022/09/18 07:44:13;;;;;;;3.60;1.40;;;;;;;19.02;52.37;96938.72;10530126;28;20042;-26
2022/09/18 07:49:14;;;;;;;3.13;0.80;;;;;;;18.94;52.38;96943.81;10531680;28;20036;-26
2022/09/18 07:54:15;;;;;;;1.60;0.60;;;;;;;18.88;52.65;96942.91;10517115;28;20036;-27
2022/09/18 07:59:30;;;;;;;9.48;2.20;;;;;;;18.90;53.67;96938.69;10527734;28;20111;-26
2022/09/18 08:04:34;;;;;;;2.20;0.70;;;;;;;18.99;52.74;96943.81;10531662;28;20024;-25
2022/09/18 08:09:40;;;;;;;3.17;0.67;;;;;;;18.96;52.95;96948.84;10519940;28;20055;-26
2022/09/18 08:14:59;;;;;;;2.75;0.70;;;;;;;18.93;52.99;96948.88;10538786;28;20043;-25
2022/09/18 08:20:20;;;;;;;2.35;0.45;;;;;;;18.92;52.79;96954.78;10527137;28;20658;-31
2022/09/18 08:25:26;;;;;;;2.55;1.35;;;;;;;18.86;53.17;96953.09;10529263;28;20031;-27
2022/09/18 08:30:28;;;;;;;2.38;0.63;;;;;;;19.01;53.04;96960.69;10528544;28;20035;-28
2022/09/18 08:35:32;;;;;;;2.28;0.70;;;;;;;19.06;53.17;96955.63;10532137;28;20031;-27
2022/09/18 08:41:22;;;;;;;1.38;0.60;;;;;;;18.95;52.79;96958.19;10529102;28;20029;-27
2022/09/18 08:46:34;;;;;;;1.90;0.77;;;;;;;18.83;53.30;96953.06;10526226;28;20062;-27
2022/09/18 08:51:53;;;;;;;1.20;0.57;;;;;;;18.84;52.86;96956.47;10527415;28;20039;-27
2022/09/18 08:56:54;;;;;;;;;;;;;;;18.83;52.83;96952.22;10530144;28;20055;-25
2022/09/18 09:02:37;;;;;;;1.15;0.70;;;;;;;18.83;52.57;96952.22;10530807;28;20033;-27
2022/09/18 09:08:05;;;;;;;1.25;0.60;;;;;;;18.82;52.46;96953.06;10522217;28;20035;-26
2022/09/18 09:13:25;;;;;;;1.33;0.75;;;;;;;18.82;52.51;96950.53;10528469;28;20039;-28
2022/09/18 09:18:38;;;;;;;0.95;0.45;;;;;;;18.85;52.34;96942.94;10542033;28;20454;-27
2022/09/18 09:23:57;;;;;;;2.30;0.80;;;;;;;18.81;52.25;96943.75;10523507;28;20043;-27
2022/09/18 09:29:31;;;;;;;1.67;0.60;;;;;;;18.97;52.60;96945.47;10489254;28;20079;-27
2022/09/18 09:35:03;;;;;;;3.20;0.60;;;;;;;19.02;52.57;96941.25;10531341;28;20423;-27
2022/09/18 09:40:17;;;;;;;2.97;0.88;;;;;;;19.00;52.35;96940.41;10529724;28;20123;-27
2022/09/18 09:45:28;;;;;;;1.00;0.57;;;;;;;18.93;52.04;96938.72;10525442;28;20826;-26
2022/09/18 09:50:55;;;;;;;2.58;0.95;;;;;;;18.76;52.73;96935.28;10525933;28;20043;-28
2022/09/18 09:56:21;;;;;;;2.58;1.38;;;;;;;18.90;52.37;96928.53;10535052;28;20032;-26
2022/09/18 10:01:31;;;;;;;2.47;1.00;;;;;;;18.80;52.43;96930.22;10521220;28;20511;-27
2022/09/18 10:07:05;;;;;;;4.15;1.10;;;;;;;18.77;52.10;96926.84;10530403;28;20071;-28
2022/09/18 10:12:34;;;;;;;4.68;1.83;;;;;;;18.74;51.70;96924.31;10522552;28;20119;-28
2022/09/18 10:17:40;;;;;;;4.85;1.88;;;;;;;18.72;51.58;96908.22;10519520;28;20063;-26
2022/09/18 10:22:45;;;;;;;6.15;1.65;;;;;;;18.71;51.06;96906.53;10542979;28;20066;-26
2022/09/18 10:27:45;;;;;;;5.40;1.75;;;;;;;18.74;50.82;96891.34;10542366;28;20058;-27
2022/09/18 10:32:46;;;;;;;4.55;1.73;;;;;;;18.75;50.82;96878.63;10545549;28;20110;-27
2022/09/18 10:38:00;;;;;;;4.60;1.55;;;;;;;18.70;50.97;96879.47;10545002;28;20038;-27
2022/09/18 10:43:05;;;;;;;2.63;1.05;;;;;;;18.84;50.10;96872.75;10539130;28;20661;-27
2022/09/18 10:48:16;;;;;;;2.83;1.13;;;;;;;18.82;48.44;96871.91;10537393;28;20039;-27
2022/09/18 10:53:28;;;;;;;4.00;1.13;;;;;;;18.83;48.63;96871.88;10542334;28;20547;-25
2022/09/18 10:58:32;;;;;;;4.43;1.60;;;;;;;18.79;49.81;96859.19;10548771;28;20077;-27
2022/09/18 11:03:45;;;;;;;2.55;1.50;;;;;;;18.86;49.61;96853.28;10548098;28;20035;-26
2022/09/18 11:08:57;;;;;;;3.78;1.05;;;;;;;18.69;50.73;96847.34;10528275;28;20035;-27
2022/09/18 11:14:01;;;;;;;2.63;1.05;;;;;;;18.61;49.95;96849.03;10542856;28;20036;-28
2022/09/18 11:19:09;;;;;;;1.73;0.80;;;;;;;18.58;49.45;96846.50;10546393;28;20501;-26
2022/09/18 11:24:24;;;;;;;1.63;0.60;;;;;;;18.63;49.66;96838.06;10547210;28;20036;-27
2022/09/18 11:29:38;;;;;;;1.77;0.70;;;;;;;18.82;49.02;96844.00;10548409;28;20048;-28
2022/09/18 11:34:48;;;;;;;1.55;0.70;;;;;;;18.71;49.20;96831.31;10553379;28;20036;-26
2022/09/18 11:39:56;;;;;;;1.52;0.60;;;;;;;18.78;49.16;96822.00;10542922;28;20036;-27
2022/09/18 11:45:22;;;;;;;2.25;0.50;;;;;;;18.64;49.29;96821.13;10542861;28;20035;-27
2022/09/18 11:50:29;;;;;;;2.28;0.73;;;;;;;18.63;48.21;96809.31;10499479;28;20053;-27
2022/09/18 11:55:37;;;;;;;2.75;0.73;;;;;;;18.60;49.34;96811.84;10546091;28;20035;-26
2022/09/18 12:00:47;;;;;;;1.17;0.93;;;;;;;18.62;49.38;96805.94;10525333;28;20024;-27
2022/09/18 12:05:52;;;;;;;1.92;0.85;;;;;;;18.59;48.24;96800.00;10542816;28;20028;-27
2022/09/18 12:11:26;;;;;;;0.85;0.50;;;;;;;18.65;48.29;96794.94;10546635;28;20028;-27
2022/09/18 12:16:51;;;;;;;1.55;0.50;;;;;;;18.58;48.28;96798.34;10540772;28;20091;-26
2022/09/18 12:22:15;;;;;;;1.40;0.57;;;;;;;18.65;48.40;96778.03;10531304;28;20039;-27
2022/09/18 12:27:38;;;;;;;2.97;0.60;;;;;;;18.66;47.63;96763.69;10544606;28;20039;-26
2022/09/18 12:33:13;;;;;;;1.67;0.55;;;;;;;18.78;47.83;96753.50;10543635;28;20495;-27
2022/09/18 12:38:21;;;;;;;2.97;0.80;;;;;;;18.63;47.96;96766.19;10554233;28;20031;-27
2022/09/18 12:43:39;;;;;;;2.28;0.65;;;;;;;18.63;48.15;96764.53;10554281;28;20043;-26
2022/09/18 12:48:58;;;;;;;2.65;0.55;;;;;;;18.63;47.58;96761.13;10547147;28;20108;-27
2022/09/18 12:54:22;;;;;;;2.22;0.50;;;;;;;18.62;47.57;96759.44;10545257;28;20601;-28
2022/09/18 12:59:48;;;;;;;1.63;0.90;;;;;;;18.59;47.68;96751.84;10551425;28;20508;-27
2022/09/18 13:04:53;;;;;;;1.08;0.50;;;;;;;18.62;47.92;96745.09;10550826;28;20085;-26
2022/09/18 13:10:22;;;;;;;1.10;0.40;;;;;;;18.70;47.64;96742.53;10550725;28;20028;-25
2022/09/18 13:15:33;;;;;;;2.92;0.70;;;;;;;18.66;47.77;96735.78;10537177;28;20036;-27
2022/09/18 13:20:41;;;;;;;2.78;0.75;;;;;;;18.60;47.29;96726.47;10552237;28;20446;-27
2022/09/18 13:25:46;;;;;;;0.88;0.55;;;;;;;18.71;46.96;96724.78;10555177;28;20662;-27
2022/09/18 13:31:09;;;;;;;1.15;0.47;;;;;;;18.75;47.21;96720.56;10547512;28;20047;-26
2022/09/18 13:36:10;;;;;;;1.20;0.70;;;;;;;18.76;47.36;96724.78;10546870;28;20023;-27
2022/09/18 13:41:11;;;;;;;1.80;0.60;;;;;;;18.69;46.72;96715.47;10553849;28;20610;-27
2022/09/18 13:46:38;;;;;;;2.08;0.57;;;;;;;18.64;47.76;96714.63;10536346;28;20044;-26
2022/09/18 13:51:39;;;;;;;0.85;0.47;;;;;;;18.62;47.24;96709.59;10550244;28;20050;-27
2022/09/18 13:57:09;;;;;;;0.75;0.50;;;;;;;18.68;47.32;96694.34;10561444;28;20038;-27
2022/09/18 14:02:34;;;;;;;1.73;0.57;;;;;;;18.65;48.37;96693.50;10517676;28;20060;-26
2022/09/18 14:07:34;;;;;;;3.25;0.60;;;;;;;18.68;47.57;96696.03;10558526;28;20032;-27
2022/09/18 14:12:35;;;;;;;1.95;0.52;;;;;;;18.56;47.95;96701.97;10565320;28;20042;-27
2022/09/18 14:17:36;;;;;;;0.88;0.43;;;;;;;18.58;47.27;96695.19;10552325;28;20453;-27
2022/09/18 14:22:39;;;;;;;2.65;0.63;;;;;;;18.56;48.00;96704.50;10556413;28;20538;-28
2022/09/18 14:27:56;;;;;;;2.22;0.80;;;;;;;18.66;47.50;96706.19;10558976;28;20035;-27
2022/09/18 14:33:07;;;;;;;1.85;0.60;;;;;;;18.69;47.28;96705.34;10550999;28;20035;-27
2022/09/18 14:38:34;;;;;;;1.70;0.63;;;;;;;18.59;47.98;96711.28;10560987;28;20563;-27
2022/09/18 14:43:38;;;;;;;2.33;0.65;;;;;;;18.56;47.23;96704.50;10551525;28;20032;-27
2022/09/18 14:48:39;;;;;;;1.48;0.65;;;;;;;18.57;46.45;96683.38;10559219;28;20121;-27
2022/09/18 14:53:42;;;;;;;5.90;0.80;;;;;;;18.59;47.01;96691.00;10556352;28;20076;-26
2022/09/18 14:58:45;;;;;;;2.67;0.90;;;;;;;18.55;47.36;96681.69;10557156;28;20028;-26
2022/09/18 15:03:49;;;;;;;2.38;0.40;;;;;;;18.54;47.20;96680.84;10556896;28;20035;-25
2022/09/18 15:08:52;;;;;;;3.30;0.60;;;;;;;18.50;46.92;96668.19;10555701;28;20070;-25
2022/09/18 15:13:55;;;;;;;1.25;0.50;;;;;;;18.56;47.25;96669.00;10554937;28;20060;-27
2022/09/18 15:18:57;;;;;;;1.50;0.57;;;;;;;18.54;47.54;96680.84;10552122;28;20024;-25
2022/09/18 15:24:01;;;;;;;1.10;0.45;;;;;;;18.50;47.01;96679.16;10537395;28;20107;-27
2022/09/18 15:29:03;;;;;;;1.08;0.57;;;;;;;18.62;46.55;96673.22;10556507;28;20108;-27
2022/09/18 15:34:07;;;;;;;2.08;0.75;;;;;;;18.67;47.04;96671.53;10545861;28;20028;-27
2022/09/18 15:39:33;;;;;;;0.98;0.57;;;;;;;18.61;47.32;96663.94;10549816;28;20119;-27
2022/09/18 15:44:33;;;;;;;1.05;0.60;;;;;;;18.54;47.62;96664.78;10550817;28;20060;-26
2022/09/18 15:49:33;;;;;;;1.20;0.43;;;;;;;18.54;47.36;96655.50;10547191;28;20486;-26
2022/09/18 15:54:34;;;;;;;0.93;0.40;;;;;;;18.54;46.75;96662.25;10549568;28;20032;-25
2022/09/18 15:59:39;;;;;;;1.60;0.70;;;;;;;18.48;47.10;96664.78;10552423;28;20114;-26
2022/09/18 16:04:40;;;;;;;1.65;0.57;;;;;;;18.47;47.43;96658.88;10545755;28;20093;-27
2022/09/18 16:09:43;;;;;;;2.53;0.70;;;;;;;18.52;46.40;96649.59;10553582;28;20114;-27
2022/09/18 16:14:52;;;;;;;2.08;0.50;;;;;;;18.54;46.88;96662.25;10550111;28;20039;-25
2022/09/18 16:19:54;;;;;;;1.20;0.40;;;;;;;18.46;47.12;96661.41;10549441;28;20492;-26
2022/09/18 16:24:56;;;;;;;1.05;0.50;;;;;;;18.65;46.90;96658.00;10553635;28;20472;-26
2022/09/18 16:29:56;;;;;;;2.22;0.80;;;;;;;18.63;47.58;96664.75;10550206;28;20036;-27
2022/09/18 16:34:57;;;;;;;2.30;1.17;;;;;;;18.62;46.85;96652.94;10554163;28;20047;-27
2022/09/18 16:39:59;;;;;;;3.83;0.90;;;;;;;18.63;46.72;96657.16;10554415;28;20032;-27
2022/09/18 16:45:01;;;;;;;2.05;0.73;;;;;;;18.59;47.46;96666.47;10550305;28;20050;-28
2022/09/18 16:50:01;;;;;;;9.40;1.08;;;;;;;18.53;46.99;96653.81;10552955;28;20100;-26
2022/09/18 16:55:02;;;;;;;1.25;0.70;;;;;;;18.47;47.12;96660.56;10547089;28;20080;-27
2022/09/18 17:00:05;;;;;;;3.10;0.85;;;;;;;18.49;47.33;96649.56;10546705;28;20406;-26
2022/09/18 17:05:06;;;;;;;2.22;0.77;;;;;;;18.47;46.82;96645.34;10544370;28;20039;-27
2022/09/18 17:10:07;;;;;;;2.42;1.00;;;;;;;18.52;46.90;96653.81;10551067;28;20036;-27
2022/09/18 17:15:08;;;;;;;3.83;0.80;;;;;;;18.52;46.58;96671.56;10548908;28;20032;-27
2022/09/18 17:20:09;;;;;;;1.23;0.55;;;;;;;18.51;46.73;96670.69;10548509;28;20654;-26
2022/09/18 17:25:11;;;;;;;2.35;0.90;;;;;;;18.66;46.62;96680.00;10550127;28;20380;-28
2022/09/18 17:30:11;;;;;;;1.65;0.82;;;;;;;18.60;46.33;96680.00;10538461;28;20032;-27
2022/09/18 17:35:12;;;;;;;1.70;0.82;;;;;;;18.65;45.98;96676.59;10539887;28;20028;-26
2022/09/18 17:40:12;;;;;;;1.08;0.57;;;;;;;18.57;46.44;96673.22;10521668;28;20035;-27
2022/09/18 17:45:13;;;;;;;2.03;0.85;;;;;;;18.54;47.04;96680.00;10520592;28;20627;-27
2022/09/18 17:50:13;;;;;;;3.75;0.88;;;;;;;18.57;46.51;96685.09;10528844;28;20028;-28
2022/09/18 17:55:14;;;;;;;3.03;0.67;;;;;;;18.54;46.85;96670.72;10524104;28;20028;-28
2022/09/18 18:00:15;;;;;;;2.33;0.60;;;;;;;18.65;46.79;96689.28;10506111;28;20502;-29
2022/09/18 18:05:15;;;;;;;1.05;0.60;;;;;;;18.67;46.36;96686.75;10523982;28;20059;-26
2022/09/18 18:10:16;;;;;;;1.23;0.50;;;;;;;18.68;46.44;96683.38;10527115;28;20036;-27
2022/09/18 18:15:17;;;;;;;1.13;0.60;;;;;;;18.75;46.48;96679.97;10520912;28;20046;-27
2022/09/18 18:20:17;;;;;;;0.40;0.30;;;;;;;18.75;46.46;96690.94;10525797;28;20105;-27
2022/09/18 18:25:17;;;;;;;2.03;0.80;;;;;;;18.61;46.58;96691.81;10550844;28;20062;-27
2022/09/18 18:30:18;;;;;;;1.47;0.50;;;;;;;18.60;46.91;96690.97;10541507;28;20036;-27
2022/09/18 18:35:18;;;;;;;1.38;0.40;;;;;;;18.61;46.21;96681.69;10548972;28;20288;-27
2022/09/18 18:40:20;;;;;;;0.93;0.37;;;;;;;18.55;46.29;96697.75;10555444;28;20111;-27
2022/09/18 18:45:21;;;;;;;0.98;0.77;;;;;;;18.47;46.38;96713.78;10533948;28;20408;-26
2022/09/18 18:50:21;;;;;;;0.87;0.40;;;;;;;18.50;46.60;96699.44;10513677;28;20048;-27
2022/09/18 18:55:21;;;;;;;2.13;0.60;;;;;;;18.39;46.71;96695.19;10538964;28;20039;-26
2022/09/18 19:00:26;;;;;;;2.70;0.83;;;;;;;18.41;45.85;96698.59;10545029;28;20104;-27
2022/09/18 19:05:29;;;;;;;0.88;0.35;;;;;;;18.43;46.15;96705.34;10554132;28;20047;-27
2022/09/18 19:10:29;;;;;;;0.40;0.30;;;;;;;18.45;45.93;96695.22;10552729;28;20044;-28
2022/09/18 19:15:29;;;;;;;1.17;0.60;;;;;;;18.53;45.33;96698.59;10549603;28;20032;-26
2022/09/18 19:20:32;;;;;;;0.80;0.43;;;;;;;18.59;45.70;96694.34;10552135;28;20031;-26
2022/09/18 19:25:33;;;;;;;1.20;0.60;;;;;;;18.46;45.85;96694.38;10538875;28;20131;-27
2022/09/18 19:30:38;;;;;;;1.60;0.73;;;;;;;18.38;45.87;96688.44;10539714;28;20027;-27
2022/09/18 19:35:39;;;;;;;1.60;0.55;;;;;;;18.32;45.42;96691.00;10548549;28;20126;-27
2022/09/18 19:40:39;;;;;;;0.85;0.50;;;;;;;18.33;45.82;96680.03;10554240;28;20072;-28
2022/09/18 19:45:40;;;;;;;1.15;0.60;;;;;;;18.29;44.61;96688.41;10543138;27;20070;-27
2022/09/18 19:50:41;;;;;;;1.23;0.40;;;;;;;18.29;45.59;96685.88;10549132;28;20063;-27
2022/09/18 19:55:45;;;;;;;1.30;0.73;;;;;;;18.27;45.46;96667.31;10550135;28;20028;-26
2022/09/18 20:00:45;;;;;;;0.70;0.50;;;;;;;18.34;45.24;96676.63;10533642;28;20028;-27
2022/09/18 20:05:46;;;;;;;1.50;0.70;;;;;;;18.26;45.46;96668.97;10531369;28;20024;-26
2022/09/18 20:10:46;;;;;;;2.37;0.70;;;;;;;18.41;45.20;96678.31;10557768;28;20315;-26
2022/09/18 20:16:09;;;;;;;1.93;0.50;;;;;;;18.37;45.25;96674.09;10545196;28;20162;-26
2022/09/18 20:21:11;;;;;;;2.50;0.57;;;;;;;18.31;45.63;96677.47;10554269;28;20062;-26
2022/09/18 20:26:16;;;;;;;0.70;0.40;;;;;;;18.34;45.15;96672.41;10558476;28;20296;-26
2022/09/18 20:31:16;;;;;;;2.47;0.70;;;;;;;18.28;45.30;96669.84;10540680;28;20411;-27
2022/09/18 20:36:17;;;;;;;3.60;1.17;;;;;;;18.33;45.31;96665.63;10545197;28;20051;-28
2022/09/18 20:41:19;;;;;;;2.00;0.53;;;;;;;18.35;45.13;96683.38;10555944;28;20044;-27
2022/09/18 20:46:19;;;;;;;1.38;0.52;;;;;;;18.30;45.34;96680.00;10545571;28;20035;-26
2022/09/18 20:51:23;;;;;;;2.03;0.68;;;;;;;18.24;45.82;96678.28;10553397;28;20116;-27
2022/09/18 20:56:26;;;;;;;2.38;0.47;;;;;;;18.26;44.95;96668.16;10553788;28;20063;-27
2022/09/18 21:01:26;;;;;;;0.60;0.40;;;;;;;18.27;45.00;96679.97;10544948;28;20108;-27
2022/09/18 21:06:30;;;;;;;2.70;0.70;;;;;;;18.27;45.14;96674.91;10552938;28;20027;-26
2022/09/18 21:11:35;;;;;;;1.10;0.82;;;;;;;18.36;45.49;96680.00;10551757;28;20471;-26
2022/09/18 21:16:41;;;;;;;1.77;0.55;;;;;;;18.26;45.23;96670.69;10553360;28;20028;-27
2022/09/18 21:21:41;;;;;;;1.20;0.50;;;;;;;18.32;45.36;96679.16;10537982;28;20523;-27
2022/09/18 21:26:48;;;;;;;1.77;0.70;;;;;;;18.31;44.65;96676.63;10555486;28;20050;-26
2022/09/18 21:31:55;;;;;;;3.08;0.68;;;;;;;18.26;45.45;96673.22;10545715;28;20552;-26
2022/09/18 21:37:00;;;;;;;;;;;;;;;18.25;45.17;96686.75;10544339;28;20047;-27
2022/09/18 21:42:04;;;;;;;2.53;0.55;;;;;;;18.29;45.27;96681.72;10553714;28;19947;-27
2022/09/18 21:47:07;;;;;;;1.75;0.50;;;;;;;18.28;45.28;96686.72;10555735;28;20040;-27
2022/09/18 21:52:08;;;;;;;1.10;0.57;;;;;;;18.29;45.13;96688.41;10550062;28;20028;-26
2022/09/18 21:57:08;;;;;;;1.27;0.60;;;;;;;18.29;44.64;96703.63;10551731;28;20480;-26
2022/09/18 22:02:10;;;;;;;1.00;0.77;;;;;;;18.30;45.42;96705.34;10546553;28;20046;-26
2022/09/18 22:07:11;;;;;;;1.52;0.60;;;;;;;18.36;45.40;96708.75;10550572;28;20044;-26
2022/09/18 22:12:11;;;;;;;1.17;0.60;;;;;;;18.39;45.45;96716.34;10558582;28;20469;-26
2022/09/18 22:17:12;;;;;;;1.88;0.60;;;;;;;18.34;45.43;96718.00;10546169;28;20047;-27
2022/09/18 22:22:12;;;;;;;1.80;0.90;;;;;;;18.36;45.32;96721.41;10557529;28;20483;-26
2022/09/18 22:27:12;;;;;;;1.00;0.50;;;;;;;18.34;45.78;96723.09;10561864;28;20035;-27
2022/09/18 22:32:13;;;;;;;2.87;0.83;;;;;;;18.23;45.98;96713.75;10557327;28;20361;-26
2022/09/18 22:37:14;;;;;;;1.07;0.40;;;;;;;18.28;46.04;96728.13;10557648;28;20360;-26
2022/09/18 22:42:14;;;;;;;1.73;0.60;;;;;;;18.29;45.84;96731.50;10561895;28;20031;-27
2022/09/18 22:47:15;;;;;;;2.10;0.75;;;;;;;18.34;46.18;96742.53;10556175;28;20118;-27
2022/09/18 22:52:15;;;;;;;3.63;1.00;;;;;;;18.34;45.88;96756.03;10557259;28;20020;-26
2022/09/18 22:57:15;;;;;;;1.02;0.70;;;;;;;18.29;45.97;96751.78;10559706;28;20032;-26
2022/09/18 23:02:17;;;;;;;2.27;0.87;;;;;;;18.38;46.00;96761.97;10556972;28;20032;-26
2022/09/18 23:07:17;;;;;;;2.80;0.57;;;;;;;18.39;45.72;96761.97;10558108;28;20070;-27
2022/09/18 23:12:18;;;;;;;3.07;0.73;;;;;;;18.38;46.03;96764.50;10561135;28;20035;-27
2022/09/18 23:17:18;;;;;;;3.07;1.17;;;;;;;18.32;46.26;96760.25;10554188;28;20782;-27
2022/09/18 23:22:19;;;;;;;0.73;0.40;;;;;;;18.34;46.19;96773.78;10553578;28;20556;-26
2022/09/18 23:27:20;;;;;;;3.83;1.20;;;;;;;18.32;46.33;96770.41;10558899;28;20036;-28
2022/09/18 23:32:20;;;;;;;1.37;0.50;;;;;;;18.29;46.06;96779.66;10552030;28;20449;-25
2022/09/18 23:37:20;;;;;;;1.70;0.60;;;;;;;18.27;46.37;96776.28;10542074;28;20035;-26
2022/09/18 23:42:22;;;;;;;1.30;0.50;;;;;;;18.25;46.19;96783.03;10557262;28;20123;-26
2022/09/18 23:47:22;;;;;;;1.75;0.52;;;;;;;18.25;45.96;96791.47;10534818;28;20290;-27
2022/09/18 23:52:23;;;;;;;1.33;0.40;;;;;;;18.23;46.34;96783.03;10534661;28;20579;-27